createdAt,value
2022-12-19T00:01:38.029Z,100895.19
2022-12-19T00:04:09.125Z,100901.16
2022-12-19T00:06:37.831Z,100906.25
2022-12-19T00:09:06.083Z,100909.69
2022-12-19T00:11:33.885Z,100918.19
2022-12-19T00:14:01.036Z,100921.59
2022-12-19T00:16:29.895Z,100925.84
2022-12-19T00:18:59.748Z,100924.97
2022-12-19T00:21:34.695Z,100928.37
2022-12-19T00:24:09.848Z,100918.09
2022-12-19T00:26:49.818Z,100915.63
2022-12-19T00:29:17.252Z,100922.41
2022-12-19T00:31:45.697Z,100913.88
2022-12-19T00:34:15.107Z,100912.19
2022-12-19T00:36:42.523Z,100920.66
2022-12-19T00:39:10.559Z,100917.25
2022-12-19T00:41:41.599Z,100922.44
2022-12-19T00:44:16.601Z,100913.88
2022-12-19T00:46:50.259Z,100916.44
2022-12-19T00:49:21.025Z,100921.56
2022-12-19T00:51:48.171Z,100906.19
2022-12-19T00:54:15.432Z,100903.66
2022-12-19T00:56:43.150Z,100913.00
2022-12-19T00:59:10.676Z,100904.47
2022-12-19T01:01:40.425Z,100906.16
2022-12-19T01:04:28.093Z,100909.53
2022-12-19T01:07:02.715Z,100905.28
2022-12-19T01:09:32.143Z,100894.16
2022-12-19T01:12:18.263Z,100895.06
2022-12-19T01:14:45.582Z,100892.44
2022-12-19T01:17:13.145Z,100896.72
2022-12-19T01:19:43.961Z,100898.47
2022-12-19T01:22:13.506Z,100883.94
2022-12-19T01:24:41.333Z,100863.47
2022-12-19T01:27:08.771Z,100869.44
2022-12-19T01:29:38.892Z,100856.63
2022-12-19T01:32:20.729Z,100863.44
2022-12-19T01:34:48.177Z,100866.03
2022-12-19T01:37:18.432Z,100862.59
2022-12-19T01:39:46.126Z,100861.75
2022-12-19T01:42:19.597Z,100861.78
2022-12-19T01:45:04.830Z,100854.22
2022-12-19T01:47:33.751Z,100857.66
2022-12-19T01:50:01.957Z,100856.81
2022-12-19T01:52:30.168Z,100856.88
2022-12-19T01:54:57.661Z,100855.13
2022-12-19T01:57:26.073Z,100859.38
2022-12-19T01:59:56.768Z,100853.41
2022-12-19T02:02:34.175Z,100856.84
2022-12-19T02:05:01.920Z,100862.81
2022-12-19T02:07:29.104Z,100863.63
2022-12-19T02:09:58.685Z,100860.25
2022-12-19T02:12:26.886Z,100850.81
2022-12-19T02:14:56.001Z,100854.28
2022-12-19T02:17:52.811Z,100861.19
2022-12-19T02:20:51.537Z,100867.16
2022-12-19T02:23:43.166Z,100865.44
2022-12-19T02:26:22.686Z,100868.84
2022-12-19T02:29:12.300Z,100865.44
2022-12-19T02:32:01.333Z,100870.56
2022-12-19T02:34:41.323Z,100868.91
2022-12-19T02:37:21.373Z,100875.75
2022-12-19T02:40:10.943Z,100886.81
2022-12-19T02:42:40.088Z,100887.69
2022-12-19T02:45:10.266Z,100889.41
2022-12-19T02:47:39.376Z,100882.56
2022-12-19T02:50:07.667Z,100876.63
2022-12-19T02:52:35.090Z,100875.81
2022-12-19T02:55:09.504Z,100874.91
2022-12-19T02:57:43.237Z,100871.53
2022-12-19T03:00:14.686Z,100875.81
2022-12-19T03:03:18.189Z,100873.25
2022-12-19T03:05:54.986Z,100873.25
2022-12-19T03:09:02.439Z,100869.84
2022-12-19T03:11:35.458Z,100880.09
2022-12-19T03:14:07.393Z,100875.81
2022-12-19T03:16:36.674Z,100863.84
2022-12-19T03:19:09.874Z,100867.28
2022-12-19T03:21:43.614Z,100855.31
2022-12-19T03:24:12.302Z,100844.22
2022-12-19T03:26:47.162Z,100844.22
2022-12-19T03:29:23.002Z,100845.06
2022-12-19T03:31:51.727Z,100845.06
2022-12-19T03:34:23.610Z,100839.09
2022-12-19T03:36:55.562Z,100833.13
2022-12-19T03:39:23.667Z,100829.69
2022-12-19T03:42:10.504Z,100837.37
2022-12-19T03:44:40.515Z,100835.66
2022-12-19T03:47:28.306Z,100837.37
2022-12-19T03:49:55.783Z,100839.03
2022-12-19T03:52:30.030Z,100844.19
2022-12-19T03:55:16.861Z,100841.63
2022-12-19T03:58:20.999Z,100839.94
2022-12-19T04:00:48.809Z,100842.47
2022-12-19T04:03:17.597Z,100838.19
2022-12-19T04:05:45.992Z,100846.75
2022-12-19T04:08:13.466Z,100839.94
2022-12-19T04:11:01.268Z,100850.19
2022-12-19T04:13:34.685Z,100836.50
2022-12-19T04:16:08.923Z,100832.22
2022-12-19T04:18:36.635Z,100834.78
2022-12-19T04:21:23.942Z,100838.19
2022-12-19T04:23:55.326Z,100856.12
2022-12-19T04:26:23.635Z,100850.16
2022-12-19T04:28:55.551Z,100846.75
2022-12-19T04:31:23.601Z,100847.56
2022-12-19T04:33:50.763Z,100839.88
2022-12-19T04:36:17.872Z,100843.28
2022-12-19T04:38:45.601Z,100845.84
2022-12-19T04:41:12.644Z,100840.72
2022-12-19T04:43:39.696Z,100833.84
2022-12-19T04:46:07.175Z,100835.56
2022-12-19T04:48:37.613Z,100831.28
2022-12-19T04:51:04.712Z,100829.56
2022-12-19T04:53:32.639Z,100820.19
2022-12-19T04:56:04.660Z,100830.47
2022-12-19T04:58:32.441Z,100845.88
2022-12-19T05:01:04.524Z,100849.31
2022-12-19T05:03:33.143Z,100851.84
2022-12-19T05:06:09.976Z,100849.28
2022-12-19T05:08:38.993Z,100839.03
2022-12-19T05:11:07.140Z,100844.97
2022-12-19T05:13:34.321Z,100850.13
2022-12-19T05:16:06.649Z,100849.28
2022-12-19T05:18:34.353Z,100858.66
2022-12-19T05:21:01.657Z,100863.81
2022-12-19T05:23:28.891Z,100857.78
2022-12-19T05:25:59.750Z,100857.75
2022-12-19T05:28:27.408Z,100853.53
2022-12-19T05:31:15.567Z,100847.50
2022-12-19T05:33:43.177Z,100846.69
2022-12-19T05:36:11.560Z,100849.25
2022-12-19T05:38:38.698Z,100840.69
2022-12-19T05:41:11.996Z,100834.66
2022-12-19T05:43:42.679Z,100836.38
2022-12-19T05:46:10.078Z,100838.94
2022-12-19T05:48:38.250Z,100843.22
2022-12-19T05:51:05.413Z,100847.47
2022-12-19T05:53:35.157Z,100848.38
2022-12-19T05:56:14.059Z,100832.06
2022-12-19T05:58:42.084Z,100837.19
2022-12-19T06:01:11.667Z,100830.34
2022-12-19T06:03:39.127Z,100838.03
2022-12-19T06:06:09.555Z,100838.94
2022-12-19T06:08:36.847Z,100840.63
2022-12-19T06:11:05.869Z,100848.34
2022-12-19T06:13:33.703Z,100856.91
2022-12-19T06:16:02.557Z,100862.00
2022-12-19T06:18:30.992Z,100857.75
2022-12-19T06:21:06.517Z,100856.00
2022-12-19T06:23:35.717Z,100849.22
2022-12-19T06:26:05.070Z,100846.59
2022-12-19T06:28:33.011Z,100848.41
2022-12-19T06:31:02.291Z,100860.34
2022-12-19T06:33:30.154Z,100854.31
2022-12-19T06:36:02.233Z,100855.19
2022-12-19T06:38:30.244Z,100856.03
2022-12-19T06:41:16.055Z,100865.44
2022-12-19T06:43:43.466Z,100861.16
2022-12-19T06:46:10.900Z,100856.03
2022-12-19T06:48:38.159Z,100854.31
2022-12-19T06:51:05.719Z,100854.34
2022-12-19T06:53:32.809Z,100852.62
2022-12-19T06:56:00.240Z,100852.62
2022-12-19T06:58:27.608Z,100844.06
2022-12-19T07:00:54.688Z,100850.94
2022-12-19T07:03:29.861Z,100851.81
2022-12-19T07:05:57.302Z,100859.47
2022-12-19T07:08:24.371Z,100851.75
2022-12-19T07:10:54.239Z,100850.91
2022-12-19T07:13:21.797Z,100870.59
2022-12-19T07:15:49.753Z,100873.97
2022-12-19T07:18:16.895Z,100874.03
2022-12-19T07:20:45.368Z,100869.69
2022-12-19T07:23:15.029Z,100875.72
2022-12-19T07:25:42.240Z,100869.69
2022-12-19T07:28:09.702Z,100862.03
2022-12-19T07:30:36.868Z,100866.19
2022-12-19T07:33:04.020Z,100868.81
2022-12-19T07:35:31.405Z,100876.56
2022-12-19T07:38:02.787Z,100873.97
2022-12-19T07:40:30.251Z,100873.09
2022-12-19T07:43:01.534Z,100871.41
2022-12-19T07:45:29.076Z,100858.56
2022-12-19T07:47:59.270Z,100859.47
2022-12-19T07:50:26.654Z,100859.53
2022-12-19T07:52:53.734Z,100863.69
2022-12-19T07:55:20.859Z,100871.47
2022-12-19T07:57:48.235Z,100884.31
2022-12-19T08:00:15.894Z,100882.59
2022-12-19T08:02:43.927Z,100871.47
2022-12-19T08:05:11.970Z,100880.87
2022-12-19T08:07:39.155Z,100894.50
2022-12-19T08:10:07.030Z,100892.72
2022-12-19T08:12:34.338Z,100895.31
2022-12-19T08:15:01.419Z,100896.25
2022-12-19T08:17:28.901Z,100902.22
2022-12-19T08:19:56.112Z,100903.84
2022-12-19T08:22:23.399Z,100903.81
2022-12-19T08:24:50.809Z,100893.44
2022-12-19T08:27:17.919Z,100895.28
2022-12-19T08:29:45.108Z,100887.56
2022-12-19T08:32:18.681Z,100881.50
2022-12-19T08:34:48.265Z,100884.06
2022-12-19T08:37:15.624Z,100872.88
2022-12-19T08:39:42.719Z,100872.94
2022-12-19T08:42:09.841Z,100869.41
2022-12-19T08:44:37.232Z,100866.16
2022-12-19T08:47:04.718Z,100858.47
2022-12-19T08:49:31.873Z,100867.91
2022-12-19T08:51:59.308Z,100872.19
2022-12-19T08:54:27.149Z,100873.84
2022-12-19T08:56:54.405Z,100866.91
2022-12-19T08:59:30.792Z,100870.28
2022-12-19T09:02:00.749Z,100886.62
2022-12-19T09:05:46.500Z,100880.63
2022-12-19T09:07:18.984Z,100869.53
2022-12-19T09:09:46.451Z,100870.53
2022-12-19T09:12:14.761Z,100863.66
2022-12-19T09:14:41.785Z,100857.69
2022-12-19T09:17:09.248Z,100858.47
2022-12-19T09:19:36.377Z,100863.63
2022-12-19T09:22:03.631Z,100871.34
2022-12-19T09:24:30.992Z,100884.22
2022-12-19T09:26:58.067Z,100889.28
2022-12-19T09:29:25.393Z,100877.28
2022-12-19T09:31:56.115Z,100871.28
2022-12-19T09:34:36.786Z,100878.13
2022-12-19T09:37:10.357Z,100868.75
2022-12-19T09:39:46.215Z,100853.38
2022-12-19T09:42:30.565Z,100852.44
2022-12-19T09:45:14.473Z,100848.06
2022-12-19T09:47:47.567Z,100842.94
2022-12-19T09:50:55.556Z,100839.63
2022-12-19T09:53:59.820Z,100837.75
2022-12-19T09:56:29.912Z,100844.53
2022-12-19T09:59:45.973Z,100828.97
2022-12-19T10:02:23.295Z,100816.06
2022-12-19T10:05:05.970Z,100817.81
2022-12-19T10:08:07.204Z,100831.53
2022-12-19T10:12:40.313Z,100822.03
2022-12-19T10:13:35.027Z,100810.75
2022-12-19T10:16:27.451Z,100801.16
2022-12-19T10:19:00.840Z,100817.38
2022-12-19T10:22:17.883Z,100820.00
2022-12-19T10:25:09.290Z,100820.91
2022-12-19T10:28:15.928Z,100816.56
2022-12-19T10:30:48.036Z,100817.59
2022-12-19T10:33:21.246Z,100792.66
2022-12-19T10:35:54.293Z,100797.69
2022-12-19T10:38:49.283Z,100804.72
2022-12-19T10:41:25.001Z,100803.53
2022-12-19T10:44:07.247Z,100793.94
2022-12-19T10:46:41.146Z,100792.22
2022-12-19T10:49:20.141Z,100790.44
2022-12-19T10:52:03.459Z,100794.75
2022-12-19T10:54:41.134Z,100790.38
2022-12-19T10:57:18.663Z,100790.56
2022-12-19T10:59:59.036Z,100788.12
2022-12-19T11:02:38.426Z,100787.00
2022-12-19T11:05:21.509Z,100776.59
2022-12-19T11:08:14.601Z,100776.34
2022-12-19T11:12:56.834Z,100775.53
2022-12-19T11:19:08.201Z,100767.75
2022-12-19T11:22:59.583Z,100770.47
2022-12-19T11:29:33.927Z,100778.97
2022-12-19T11:29:44.094Z,100780.44
2022-12-19T11:30:39.206Z,100768.87
2022-12-19T11:30:41.837Z,100771.25
2022-12-19T11:34:21.266Z,100754.72
2022-12-19T11:36:53.119Z,100761.03
2022-12-19T11:39:32.106Z,100757.66
2022-12-19T11:42:02.127Z,100754.16
2022-12-19T11:44:35.077Z,100751.38
2022-12-19T11:47:18.214Z,100743.06
2022-12-19T11:49:53.832Z,100737.59
2022-12-19T11:53:02.773Z,100722.81
2022-12-19T11:55:38.232Z,100732.19
2022-12-19T11:58:06.079Z,100718.13
2022-12-19T12:00:34.840Z,100725.16
2022-12-19T12:03:31.589Z,100729.53
2022-12-19T12:05:58.764Z,100725.75
2022-12-19T12:10:09.385Z,100725.81
2022-12-19T12:17:02.648Z,100718.81
2022-12-19T12:27:35.941Z,100714.59
2022-12-19T12:27:49.062Z,100720.56
2022-12-19T12:31:20.142Z,100706.66
2022-12-19T12:31:38.593Z,100712.00
2022-12-19T12:31:50.264Z,100705.88
2022-12-19T12:35:40.505Z,100704.66
2022-12-19T12:35:47.064Z,100704.13
2022-12-19T12:38:14.796Z,100703.75
2022-12-19T12:40:40.648Z,100701.28
2022-12-19T12:43:26.335Z,100708.16
2022-12-19T12:45:53.929Z,100715.03
2022-12-19T12:48:25.507Z,100703.00
2022-12-19T12:50:55.352Z,100702.94
2022-12-19T12:53:28.756Z,100705.59
2022-12-19T12:55:57.161Z,100703.94
2022-12-19T12:58:42.828Z,100703.88
2022-12-19T13:01:12.714Z,100698.72
2022-12-19T13:03:42.298Z,100681.34
2022-12-19T13:06:36.535Z,100678.00
2022-12-19T13:09:09.161Z,100678.31
2022-12-19T13:11:59.523Z,100683.53
2022-12-19T13:14:35.767Z,100675.28
2022-12-19T13:17:07.266Z,100668.63
2022-12-19T13:19:58.924Z,100671.56
2022-12-19T13:22:28.950Z,100682.28
2022-12-19T13:24:57.673Z,100677.03
2022-12-19T13:27:36.079Z,100674.47
2022-12-19T13:30:14.218Z,100665.19
2022-12-19T13:32:41.244Z,100666.03
2022-12-19T13:35:54.326Z,100661.03
2022-12-19T13:39:49.871Z,100650.84
2022-12-19T13:41:45.614Z,100651.66
2022-12-19T13:44:12.988Z,100643.94
2022-12-19T13:46:44.674Z,100631.78
2022-12-19T13:49:19.406Z,100636.28
2022-12-19T13:51:47.936Z,100648.59
2022-12-19T13:54:45.429Z,100656.91
2022-12-19T13:57:25.165Z,100651.91
2022-12-19T14:00:00.464Z,100652.12
2022-12-19T14:02:44.775Z,100643.50
2022-12-19T14:06:14.293Z,100636.66
2022-12-19T14:08:23.598Z,100645.91
2022-12-19T14:11:35.283Z,100641.66
2022-12-19T14:14:10.729Z,100640.94
2022-12-19T14:16:44.686Z,100642.56
2022-12-19T14:19:18.414Z,100641.88
2022-12-19T14:22:04.563Z,100641.03
2022-12-19T14:24:33.056Z,100635.88
2022-12-19T14:28:18.618Z,100631.62
2022-12-19T14:30:31.006Z,100628.09
2022-12-19T14:33:46.388Z,100623.84
2022-12-19T14:36:09.796Z,100634.31
2022-12-19T14:39:24.147Z,100629.22
2022-12-19T14:41:46.969Z,100639.44
2022-12-19T14:51:51.661Z,100638.66
2022-12-19T14:54:13.937Z,100644.72
2022-12-19T14:54:17.042Z,100639.53
2022-12-19T14:54:40.481Z,100641.50
2022-12-19T14:56:11.484Z,100637.28
2022-12-19T14:58:53.361Z,100641.44
2022-12-19T15:01:24.960Z,100640.63
2022-12-19T15:04:53.510Z,100626.22
2022-12-19T15:07:09.518Z,100633.94
2022-12-19T15:11:05.356Z,100642.56
2022-12-19T15:14:46.967Z,100647.94
2022-12-19T15:15:56.354Z,100639.41
2022-12-19T15:18:33.022Z,100638.53
2022-12-19T15:21:02.677Z,100642.72
2022-12-19T15:23:30.444Z,100639.19
2022-12-19T15:26:06.192Z,100638.28
2022-12-19T15:28:47.780Z,100642.62
2022-12-19T15:31:17.713Z,100644.56
2022-12-19T15:34:14.354Z,100653.06
2022-12-19T15:36:32.921Z,100658.28
2022-12-19T15:39:00.309Z,100648.91
2022-12-19T15:41:27.602Z,100662.53
2022-12-19T15:44:04.095Z,100654.00
2022-12-19T15:46:32.694Z,100648.84
2022-12-19T15:48:59.840Z,100647.19
2022-12-19T15:51:26.939Z,100648.06
2022-12-19T15:54:15.541Z,100643.84
2022-12-19T15:56:47.385Z,100644.50
2022-12-19T15:59:47.674Z,100634.16
2022-12-19T16:02:21.730Z,100626.50
2022-12-19T16:04:50.430Z,100630.00
2022-12-19T16:07:22.852Z,100635.91
2022-12-19T16:09:50.272Z,100634.34
2022-12-19T16:12:20.353Z,100637.63
2022-12-19T16:14:56.702Z,100639.41
2022-12-19T16:17:25.458Z,100637.59
2022-12-19T16:19:52.611Z,100637.81
2022-12-19T16:22:24.455Z,100633.66
2022-12-19T16:24:52.785Z,100632.66
2022-12-19T16:27:30.260Z,100626.69
2022-12-19T16:30:02.845Z,100623.28
2022-12-19T16:32:29.935Z,100624.94
2022-12-19T16:34:57.285Z,100621.47
2022-12-19T16:37:31.797Z,100618.88
2022-12-19T16:39:59.769Z,100611.97
2022-12-19T16:42:28.275Z,100611.84
2022-12-19T16:44:55.489Z,100610.16
2022-12-19T16:47:22.913Z,100614.38
2022-12-19T16:49:50.076Z,100609.34
2022-12-19T16:52:17.150Z,100604.38
2022-12-19T16:54:44.539Z,100603.41
2022-12-19T16:57:19.996Z,100605.19
2022-12-19T16:59:48.010Z,100595.75
2022-12-19T17:02:34.094Z,100605.97
2022-12-19T17:05:01.552Z,100611.84
2022-12-19T17:07:29.185Z,100609.22
2022-12-19T17:09:56.235Z,100615.97
2022-12-19T17:12:25.137Z,100626.16
2022-12-19T17:14:52.220Z,100622.81
2022-12-19T17:17:19.275Z,100618.59
2022-12-19T17:19:46.733Z,100616.91
2022-12-19T17:22:15.431Z,100619.44
2022-12-19T17:24:44.045Z,100616.03
2022-12-19T17:27:11.348Z,100613.50
2022-12-19T17:29:38.400Z,100609.22
2022-12-19T17:32:08.993Z,100628.03
2022-12-19T17:34:36.411Z,100633.22
2022-12-19T17:37:05.228Z,100631.56
2022-12-19T17:39:34.527Z,100628.00
2022-12-19T17:42:10.950Z,100628.84
2022-12-19T17:44:37.981Z,100626.22
2022-12-19T17:47:05.495Z,100621.03
2022-12-19T17:49:32.862Z,100627.06
2022-12-19T17:52:00.251Z,100630.44
2022-12-19T17:54:27.617Z,100627.88
2022-12-19T17:56:55.244Z,100626.09
2022-12-19T17:59:22.248Z,100627.97
2022-12-19T18:01:49.950Z,100629.63
2022-12-19T18:04:18.943Z,100627.75
2022-12-19T18:06:46.471Z,100628.66
2022-12-19T18:09:24.185Z,100638.91
2022-12-19T18:11:52.863Z,100643.28
2022-12-19T18:14:20.545Z,100637.31
2022-12-19T18:16:48.158Z,100626.97
2022-12-19T18:19:23.559Z,100623.66
2022-12-19T18:21:50.658Z,100624.47
2022-12-19T18:24:18.054Z,100629.66
2022-12-19T18:26:45.245Z,100631.38
2022-12-19T18:29:12.844Z,100628.00
2022-12-19T18:31:48.187Z,100624.50
2022-12-19T18:34:23.047Z,100626.25
2022-12-19T18:36:51.257Z,100633.09
2022-12-19T18:39:21.392Z,100621.94
2022-12-19T18:41:50.031Z,100614.16
2022-12-19T18:44:17.711Z,100602.13
2022-12-19T18:46:45.468Z,100597.84
2022-12-19T18:49:16.908Z,100592.69
2022-12-19T18:51:44.968Z,100587.53
2022-12-19T18:54:13.666Z,100583.34
2022-12-19T18:56:40.769Z,100579.03
2022-12-19T18:59:09.461Z,100583.31
2022-12-19T19:01:40.157Z,100576.59
2022-12-19T19:04:08.888Z,100573.91
2022-12-19T19:06:38.152Z,100573.03
2022-12-19T19:09:13.135Z,100561.16
2022-12-19T19:11:42.418Z,100558.63
2022-12-19T19:14:09.668Z,100559.50
2022-12-19T19:16:40.164Z,100564.56
2022-12-19T19:19:10.892Z,100564.53
2022-12-19T19:21:38.886Z,100577.38
2022-12-19T19:24:09.252Z,100579.09
2022-12-19T19:26:36.833Z,100579.03
2022-12-19T19:29:04.166Z,100571.31
2022-12-19T19:31:34.457Z,100566.16
2022-12-19T19:34:10.009Z,100567.13
2022-12-19T19:36:40.397Z,100562.94
2022-12-19T19:39:07.753Z,100551.81
2022-12-19T19:41:34.773Z,100557.75
2022-12-19T19:44:01.920Z,100544.91
2022-12-19T19:46:29.456Z,100545.81
2022-12-19T19:48:57.143Z,100546.72
2022-12-19T19:51:24.771Z,100551.84
2022-12-19T19:53:52.156Z,100545.75
2022-12-19T19:56:19.462Z,100550.91
2022-12-19T19:58:46.577Z,100550.00
2022-12-19T20:01:14.397Z,100548.25
2022-12-19T20:03:43.159Z,100549.19
2022-12-19T20:06:11.030Z,100544.00
2022-12-19T20:08:40.222Z,100557.66
2022-12-19T20:11:08.735Z,100548.22
2022-12-19T20:13:36.116Z,100557.62
2022-12-19T20:16:23.474Z,100563.66
2022-12-19T20:18:52.447Z,100569.72
2022-12-19T20:21:20.088Z,100567.09
2022-12-19T20:23:47.343Z,100567.94
2022-12-19T20:26:16.395Z,100569.69
2022-12-19T20:28:49.250Z,100567.91
2022-12-19T20:31:19.626Z,100568.69
2022-12-19T20:33:48.281Z,100560.31
2022-12-19T20:36:16.668Z,100563.59
2022-12-19T20:38:44.182Z,100560.00
2022-12-19T20:41:11.180Z,100558.38
2022-12-19T20:43:38.653Z,100549.09
2022-12-19T20:46:08.592Z,100541.28
2022-12-19T20:48:36.490Z,100526.78
2022-12-19T20:51:05.178Z,100544.69
2022-12-19T20:53:34.815Z,100545.50
2022-12-19T20:56:03.733Z,100548.03
2022-12-19T20:58:33.115Z,100553.97
2022-12-19T21:01:09.355Z,100548.97
2022-12-19T21:03:37.853Z,100553.97
2022-12-19T21:06:05.867Z,100539.56
2022-12-19T21:08:33.529Z,100546.25
2022-12-19T21:11:01.884Z,100539.38
2022-12-19T21:13:29.572Z,100547.91
2022-12-19T21:15:58.734Z,100540.03
2022-12-19T21:18:26.904Z,100539.31
2022-12-19T21:20:54.835Z,100545.28
2022-12-19T21:23:23.138Z,100542.06
2022-12-19T21:25:50.233Z,100542.91
2022-12-19T21:28:17.998Z,100541.16
2022-12-19T21:30:45.308Z,100524.25
2022-12-19T21:33:12.363Z,100531.00
2022-12-19T21:35:39.752Z,100538.59
2022-12-19T21:38:06.814Z,100541.09
2022-12-19T21:40:36.073Z,100532.66
2022-12-19T21:43:11.176Z,100540.28
2022-12-19T21:45:39.190Z,100528.41
2022-12-19T21:48:06.958Z,100524.16
2022-12-19T21:50:34.106Z,100537.81
2022-12-19T21:53:01.246Z,100542.06
2022-12-19T21:55:28.589Z,100522.41
2022-12-19T21:57:55.808Z,100529.38
2022-12-19T22:00:23.068Z,100541.22
2022-12-19T22:03:12.760Z,100533.56
2022-12-19T22:05:38.250Z,100543.69
2022-12-19T22:08:05.653Z,100541.97
2022-12-19T22:10:32.763Z,100526.84
2022-12-19T22:12:59.832Z,100527.78
2022-12-19T22:15:27.174Z,100518.34
2022-12-19T22:17:54.252Z,100521.78
2022-12-19T22:20:21.301Z,100522.66
2022-12-19T22:22:48.655Z,100512.41
2022-12-19T22:25:15.778Z,100506.41
2022-12-19T22:27:42.845Z,100503.00
2022-12-19T22:30:11.349Z,100497.91
2022-12-19T22:32:38.619Z,100498.81
2022-12-19T22:35:06.239Z,100486.91
2022-12-19T22:37:33.642Z,100475.75
2022-12-19T22:40:04.071Z,100487.81
2022-12-19T22:42:31.183Z,100482.72
2022-12-19T22:44:59.318Z,100470.63
2022-12-19T22:47:26.375Z,100444.22
2022-12-19T22:49:53.425Z,100449.34
2022-12-19T22:52:20.880Z,100463.91
2022-12-19T22:54:48.077Z,100453.69
2022-12-19T22:57:15.614Z,100451.28
2022-12-19T22:59:43.033Z,100428.38
2022-12-19T23:02:10.326Z,100440.87
2022-12-19T23:04:37.518Z,100429.09
2022-12-19T23:07:04.872Z,100426.59
2022-12-19T23:09:31.936Z,100426.63
2022-12-19T23:11:59.125Z,100441.13
2022-12-19T23:14:26.524Z,100440.16
2022-12-19T23:16:53.560Z,100457.31
2022-12-19T23:19:20.652Z,100448.75
2022-12-19T23:21:47.942Z,100442.00
2022-12-19T23:24:15.125Z,100429.25
2022-12-19T23:26:42.382Z,100425.72
2022-12-19T23:29:14.098Z,100431.66
2022-12-19T23:31:42.688Z,100442.66
2022-12-19T23:34:10.612Z,100442.69
2022-12-19T23:37:09.512Z,100448.84
2022-12-19T23:39:25.428Z,100445.34
2022-12-19T23:41:52.460Z,100438.41
2022-12-19T23:44:19.633Z,100429.19
2022-12-19T23:46:46.896Z,100422.34
2022-12-19T23:49:14.254Z,100418.88
2022-12-19T23:51:41.263Z,100419.59
2022-12-19T23:54:11.556Z,100410.19
2022-12-19T23:56:38.654Z,100410.13
2022-12-19T23:59:05.674Z,100414.44
